createdAt,value
2023-02-06T00:00:44.992Z,18.52
2023-02-06T00:03:11.599Z,18.85
2023-02-06T00:05:38.278Z,19.50
2023-02-06T00:08:07.076Z,18.40
2023-02-06T00:10:34.004Z,21.25
2023-02-06T00:13:00.632Z,16.25
2023-02-06T00:15:27.002Z,17.63
2023-02-06T00:17:53.346Z,17.10
2023-02-06T00:20:19.690Z,15.30
2023-02-06T00:22:46.068Z,18.13
2023-02-06T00:25:12.425Z,15.48
2023-02-06T00:27:39.170Z,14.02
2023-02-06T00:30:06.191Z,15.65
2023-02-06T00:32:34.647Z,16.08
2023-02-06T00:35:01.215Z,16.80
2023-02-06T00:37:27.680Z,16.80
2023-02-06T00:39:54.045Z,15.35
2023-02-06T00:42:20.641Z,12.98
2023-02-06T00:44:47.010Z,18.17
2023-02-06T00:47:13.367Z,13.05
2023-02-06T00:49:39.718Z,14.32
2023-02-06T00:52:06.052Z,16.58
2023-02-06T00:54:32.401Z,15.13
2023-02-06T00:56:58.775Z,14.80
2023-02-06T00:59:25.144Z,15.63
2023-02-06T01:01:51.781Z,15.15
2023-02-06T01:04:18.321Z,13.85
2023-02-06T01:06:44.652Z,12.23
2023-02-06T01:09:11.033Z,13.10
2023-02-06T01:11:37.420Z,14.45
2023-02-06T01:14:03.901Z,15.00
2023-02-06T01:16:30.559Z,15.73
2023-02-06T01:18:56.930Z,15.18
2023-02-06T01:21:24.904Z,13.07
2023-02-06T01:23:53.446Z,14.60
2023-02-06T01:26:22.803Z,18.63
2023-02-06T01:28:49.951Z,15.68
2023-02-06T01:31:22.549Z,13.55
2023-02-06T01:33:50.040Z,15.20
2023-02-06T01:36:17.758Z,12.45
2023-02-06T01:38:44.651Z,13.95
2023-02-06T01:41:12.795Z,14.13
2023-02-06T01:43:42.976Z,14.65
2023-02-06T01:46:09.808Z,16.80
2023-02-06T01:48:44.017Z,19.27
2023-02-06T01:51:15.093Z,14.63
2023-02-06T01:53:44.713Z,17.63
2023-02-06T01:56:11.977Z,16.48
2023-02-06T01:58:44.279Z,15.48
2023-02-06T02:01:11.361Z,18.50
2023-02-06T02:03:41.665Z,17.25
2023-02-06T02:06:12.248Z,17.00
2023-02-06T02:08:42.482Z,17.95
2023-02-06T02:11:11.821Z,14.55
2023-02-06T02:13:38.664Z,15.38
2023-02-06T02:16:18.144Z,16.90
2023-02-06T02:19:07.526Z,14.30
2023-02-06T02:21:54.867Z,15.85
2023-02-06T02:24:40.022Z,16.88
2023-02-06T02:27:17.767Z,17.00
2023-02-06T02:30:16.611Z,17.65
2023-02-06T02:32:58.747Z,15.50
2023-02-06T02:35:32.777Z,13.77
2023-02-06T02:38:13.467Z,15.57
2023-02-06T02:40:49.602Z,17.33
2023-02-06T02:43:28.548Z,15.75
2023-02-06T02:45:58.563Z,15.70
2023-02-06T02:48:40.685Z,13.30
2023-02-06T02:51:07.881Z,14.18
2023-02-06T02:53:34.572Z,19.02
2023-02-06T02:56:01.290Z,17.02
2023-02-06T02:58:32.580Z,15.32
2023-02-06T03:01:11.543Z,13.68
2023-02-06T03:03:41.923Z,17.48
2023-02-06T03:06:28.642Z,18.15
2023-02-06T03:09:11.510Z,15.98
2023-02-06T03:11:45.280Z,11.82
2023-02-06T03:14:22.209Z,14.63
2023-02-06T03:16:54.478Z,15.52
2023-02-06T03:19:29.024Z,14.75
2023-02-06T03:21:55.501Z,15.13
2023-02-06T03:24:28.518Z,15.90
2023-02-06T03:26:59.944Z,14.25
2023-02-06T03:29:29.969Z,14.18
2023-02-06T03:32:02.319Z,11.32
2023-02-06T03:34:41.398Z,11.32
2023-02-06T03:37:08.076Z,14.27
2023-02-06T03:39:34.823Z,11.48
2023-02-06T03:42:02.576Z,12.93
2023-02-06T03:44:33.655Z,10.65
2023-02-06T03:47:01.560Z,11.85
2023-02-06T03:49:30.202Z,10.55
2023-02-06T03:52:04.824Z,11.70
2023-02-06T03:54:32.252Z,11.50
2023-02-06T03:57:03.225Z,12.82
2023-02-06T03:59:30.481Z,11.55
2023-02-06T04:01:59.292Z,13.10
2023-02-06T04:04:29.777Z,13.52
2023-02-06T04:07:21.290Z,11.63
2023-02-06T04:09:47.856Z,13.05
2023-02-06T04:12:15.330Z,12.48
2023-02-06T04:14:42.479Z,11.00
2023-02-06T04:17:10.325Z,12.77
2023-02-06T04:19:37.429Z,11.68
2023-02-06T04:22:04.382Z,11.48
2023-02-06T04:24:31.195Z,10.48
2023-02-06T04:26:58.215Z,10.90
2023-02-06T04:29:24.840Z,11.38
2023-02-06T04:31:51.467Z,12.35
2023-02-06T04:34:17.830Z,11.23
2023-02-06T04:36:44.180Z,10.65
2023-02-06T04:39:10.543Z,12.23
2023-02-06T04:41:36.923Z,12.52
2023-02-06T04:44:03.505Z,12.05
2023-02-06T04:46:29.885Z,12.30
2023-02-06T04:48:56.219Z,13.75
2023-02-06T04:51:22.603Z,14.25
2023-02-06T04:53:48.949Z,11.25
2023-02-06T04:56:15.275Z,12.60
2023-02-06T04:58:41.637Z,9.68
2023-02-06T05:01:07.994Z,13.00
2023-02-06T05:03:34.517Z,18.05
2023-02-06T05:06:02.643Z,13.43
2023-02-06T05:08:29.303Z,11.52
2023-02-06T05:10:56.429Z,15.15
2023-02-06T05:13:23.672Z,11.73
2023-02-06T05:15:50.456Z,11.55
2023-02-06T05:18:17.089Z,12.65
2023-02-06T05:20:43.826Z,11.98
2023-02-06T05:23:10.485Z,13.38
2023-02-06T05:25:37.349Z,11.45
2023-02-06T05:28:06.618Z,10.63
2023-02-06T05:30:36.220Z,12.63
2023-02-06T05:33:02.672Z,12.13
2023-02-06T05:35:29.328Z,13.23
2023-02-06T05:37:55.716Z,15.55
2023-02-06T05:40:22.105Z,12.02
2023-02-06T05:42:48.456Z,14.48
2023-02-06T05:45:14.817Z,12.88
2023-02-06T05:47:41.261Z,13.43
2023-02-06T05:50:07.854Z,12.27
2023-02-06T05:52:34.321Z,13.93
2023-02-06T05:55:00.823Z,14.98
2023-02-06T05:57:27.161Z,14.82
2023-02-06T05:59:53.499Z,15.13
2023-02-06T06:02:19.899Z,14.25
2023-02-06T06:04:46.333Z,17.52
2023-02-06T06:07:13.104Z,14.70
2023-02-06T06:09:39.425Z,14.25
2023-02-06T06:12:05.999Z,16.65
2023-02-06T06:14:32.336Z,16.08
2023-02-06T06:16:58.679Z,17.85
2023-02-06T06:19:25.066Z,15.57
2023-02-06T06:21:51.629Z,17.80
2023-02-06T06:24:18.096Z,15.98
2023-02-06T06:26:44.445Z,19.27
2023-02-06T06:29:10.769Z,16.27
2023-02-06T06:31:37.137Z,19.42
2023-02-06T06:34:03.507Z,19.33
2023-02-06T06:36:29.907Z,15.60
2023-02-06T06:38:56.252Z,20.27
2023-02-06T06:41:22.641Z,18.90
2023-02-06T06:43:51.289Z,18.67
2023-02-06T06:46:19.837Z,19.80
2023-02-06T06:48:46.228Z,17.42
2023-02-06T06:51:12.612Z,19.48
2023-02-06T06:53:39.966Z,18.70
2023-02-06T06:56:07.818Z,18.23
2023-02-06T06:58:34.568Z,21.33
2023-02-06T07:01:01.054Z,20.73
2023-02-06T07:03:27.696Z,19.70
2023-02-06T07:05:54.119Z,19.13
2023-02-06T07:08:20.451Z,20.67
2023-02-06T07:10:47.594Z,21.15
2023-02-06T07:13:15.422Z,19.73
2023-02-06T07:15:42.824Z,24.08
2023-02-06T07:18:11.581Z,22.08
2023-02-06T07:20:38.214Z,19.85
2023-02-06T07:23:05.612Z,20.23
2023-02-06T07:25:32.474Z,25.42
2023-02-06T07:27:59.092Z,20.23
2023-02-06T07:30:25.709Z,20.33
2023-02-06T07:32:52.198Z,21.05
2023-02-06T07:35:18.695Z,21.30
2023-02-06T07:37:45.032Z,24.08
2023-02-06T07:40:12.263Z,24.55
2023-02-06T07:42:40.169Z,20.13
2023-02-06T07:45:06.818Z,20.98
2023-02-06T07:47:33.209Z,23.77
2023-02-06T07:49:59.578Z,19.23
2023-02-06T07:52:26.017Z,23.20
2023-02-06T07:54:52.382Z,21.98
2023-02-06T07:57:21.795Z,24.67
2023-02-06T07:59:48.156Z,21.48
2023-02-06T08:02:14.514Z,114.25
2023-02-06T08:04:40.960Z,126.72
2023-02-06T08:07:11.103Z,43.58
2023-02-06T08:09:37.457Z,24.52
2023-02-06T08:12:04.040Z,19.48
2023-02-06T08:14:31.219Z,18.90
2023-02-06T08:16:57.649Z,23.98
2023-02-06T08:19:24.070Z,22.52
2023-02-06T08:21:50.876Z,22.25
2023-02-06T08:24:17.575Z,50.10
2023-02-06T08:26:44.017Z,102.75
2023-02-06T08:29:10.998Z,29.23
2023-02-06T08:31:39.895Z,21.15
2023-02-06T08:34:08.041Z,21.20
2023-02-06T08:36:34.711Z,19.23
2023-02-06T08:39:01.974Z,26.90
2023-02-06T08:41:39.268Z,22.40
2023-02-06T08:44:11.598Z,23.13
2023-02-06T08:46:38.840Z,21.15
2023-02-06T08:49:08.164Z,22.13
2023-02-06T08:51:35.476Z,19.52
2023-02-06T08:54:05.808Z,23.20
2023-02-06T08:56:33.837Z,23.08
2023-02-06T08:59:01.687Z,68.60
2023-02-06T09:01:30.397Z,96.35
2023-02-06T09:03:58.373Z,25.17
2023-02-06T09:06:25.770Z,21.95
2023-02-06T09:08:53.133Z,20.73
2023-02-06T09:11:21.943Z,22.90
2023-02-06T09:13:49.547Z,27.10
2023-02-06T09:16:18.233Z,22.45
2023-02-06T09:18:45.166Z,21.00
2023-02-06T09:21:20.297Z,21.73
2023-02-06T09:23:49.810Z,21.30
2023-02-06T09:26:19.167Z,35.30
2023-02-06T09:28:45.642Z,28.58
2023-02-06T09:31:12.194Z,24.63
2023-02-06T09:33:39.434Z,21.63
2023-02-06T09:36:13.836Z,23.40
2023-02-06T09:38:44.034Z,21.17
2023-02-06T09:41:24.042Z,21.92
2023-02-06T09:43:54.490Z,27.08
2023-02-06T09:46:27.452Z,24.42
2023-02-06T09:48:57.102Z,25.17
2023-02-06T09:51:50.941Z,24.20
2023-02-06T09:54:30.165Z,26.38
2023-02-06T09:57:34.840Z,27.67
2023-02-06T10:00:20.318Z,25.35
2023-02-06T10:03:08.145Z,28.77
2023-02-06T10:05:43.650Z,118.57
2023-02-06T10:08:13.028Z,50.58
2023-02-06T10:10:49.005Z,25.80
2023-02-06T10:13:24.515Z,25.00
2023-02-06T10:15:55.982Z,24.73
2023-02-06T10:18:28.364Z,24.85
2023-02-06T10:21:05.986Z,25.92
2023-02-06T10:23:47.446Z,24.80
2023-02-06T10:26:19.307Z,30.25
2023-02-06T10:28:52.430Z,26.33
2023-02-06T10:31:24.797Z,25.33
2023-02-06T10:34:10.220Z,27.48
2023-02-06T10:37:09.959Z,27.48
2023-02-06T10:39:49.493Z,28.13
2023-02-06T10:42:25.777Z,27.67
2023-02-06T10:45:29.986Z,29.33
2023-02-06T10:48:09.295Z,28.73
2023-02-06T10:50:44.235Z,26.65
2023-02-06T10:53:17.837Z,77.43
2023-02-06T10:55:57.055Z,160.77
2023-02-06T10:58:37.426Z,33.72
2023-02-06T11:01:20.206Z,29.10
2023-02-06T11:04:10.502Z,28.58
2023-02-06T11:06:40.113Z,30.02
2023-02-06T11:09:06.494Z,29.58
2023-02-06T11:11:39.347Z,30.60
2023-02-06T11:14:18.514Z,28.55
2023-02-06T11:16:46.719Z,31.17
2023-02-06T11:19:17.631Z,33.00
2023-02-06T11:21:43.966Z,29.90
2023-02-06T11:24:16.721Z,31.67
2023-02-06T11:26:48.787Z,31.65
2023-02-06T11:29:22.450Z,28.88
2023-02-06T11:31:53.179Z,32.95
2023-02-06T11:34:24.598Z,34.60
2023-02-06T11:37:02.426Z,38.38
2023-02-06T11:39:30.605Z,32.75
2023-02-06T11:42:13.662Z,37.83
2023-02-06T11:44:42.502Z,36.30
2023-02-06T11:47:32.306Z,35.88
2023-02-06T11:50:14.082Z,36.95
2023-02-06T11:52:44.619Z,128.68
2023-02-06T11:55:26.298Z,193.18
2023-02-06T11:58:11.535Z,48.15
2023-02-06T12:00:56.844Z,41.80
2023-02-06T12:03:59.255Z,35.00
2023-02-06T12:06:33.169Z,37.58
2023-02-06T12:09:01.741Z,36.50
2023-02-06T12:11:34.557Z,38.22
2023-02-06T12:14:16.834Z,35.05
2023-02-06T12:19:23.889Z,33.97
2023-02-06T12:21:57.771Z,37.08
2023-02-06T12:24:30.041Z,35.78
2023-02-06T12:26:59.332Z,35.15
2023-02-06T12:29:42.317Z,34.95
2023-02-06T12:32:21.030Z,36.50
2023-02-06T12:34:56.204Z,36.72
2023-02-06T12:37:31.870Z,33.35
2023-02-06T12:40:00.333Z,31.17
2023-02-06T12:42:38.541Z,33.88
2023-02-06T12:45:14.800Z,35.47
2023-02-06T12:47:56.331Z,33.63
2023-02-06T12:50:33.831Z,32.13
2023-02-06T12:53:10.508Z,31.88
2023-02-06T12:55:44.503Z,34.15
2023-02-06T12:58:28.101Z,32.67
2023-02-06T13:01:32.266Z,33.80
2023-02-06T13:04:05.330Z,36.92
2023-02-06T13:06:43.860Z,36.03
2023-02-06T13:09:20.475Z,34.78
2023-02-06T13:11:47.206Z,69.10
2023-02-06T13:14:29.003Z,59.03
2023-02-06T13:17:17.239Z,35.20
2023-02-06T13:19:43.536Z,34.15
2023-02-06T13:22:09.808Z,35.08
2023-02-06T13:24:41.108Z,33.88
2023-02-06T13:27:07.388Z,33.92
2023-02-06T13:29:42.739Z,34.88
2023-02-06T13:32:12.013Z,33.00
2023-02-06T13:34:44.391Z,30.83
2023-02-06T13:37:25.879Z,32.28
2023-02-06T13:40:23.329Z,34.97
2023-02-06T13:43:25.534Z,39.47
2023-02-06T13:45:51.810Z,30.05
2023-02-06T13:48:37.630Z,31.00
2023-02-06T13:51:29.268Z,30.38
2023-02-06T13:54:28.249Z,31.08
2023-02-06T13:57:10.526Z,34.42
2023-02-06T14:02:13.313Z,31.15
2023-02-06T14:04:40.128Z,29.85
2023-02-06T14:07:28.390Z,27.88
2023-02-06T14:10:28.248Z,30.55
2023-02-06T14:13:15.046Z,25.10
2023-02-06T14:15:56.241Z,26.50
2023-02-06T14:18:50.779Z,29.38
2023-02-06T14:21:38.599Z,25.83
2023-02-06T14:24:38.963Z,23.67
2023-02-06T14:27:15.190Z,23.65
2023-02-06T14:29:56.876Z,21.65
2023-02-06T14:32:43.481Z,23.15
2023-02-06T14:35:47.595Z,22.17
2023-02-06T14:38:32.952Z,19.27
2023-02-06T14:41:01.776Z,20.38
2023-02-06T14:43:32.142Z,19.35
2023-02-06T14:46:07.485Z,21.50
2023-02-06T14:48:47.388Z,20.40
2023-02-06T14:51:35.243Z,17.58
2023-02-06T14:54:04.863Z,20.08
2023-02-06T14:56:37.037Z,14.95
2023-02-06T14:59:12.376Z,16.55
2023-02-06T15:01:39.678Z,18.38
2023-02-06T15:04:15.072Z,21.88
2023-02-06T15:06:49.645Z,142.70
2023-02-06T15:09:24.076Z,52.40
2023-02-06T15:11:56.498Z,15.77
2023-02-06T15:14:28.466Z,11.93
2023-02-06T15:17:00.113Z,13.98
2023-02-06T15:19:29.783Z,11.48
2023-02-06T15:22:02.702Z,17.40
2023-02-06T15:24:44.311Z,17.42
2023-02-06T15:27:30.371Z,29.17
2023-02-06T15:29:57.238Z,28.05
2023-02-06T15:32:37.867Z,31.65
2023-02-06T15:35:19.416Z,31.50
2023-02-06T15:37:46.022Z,33.30
2023-02-06T15:40:15.280Z,33.08
2023-02-06T15:42:42.072Z,34.35
2023-02-06T15:45:19.237Z,34.20
2023-02-06T15:47:46.108Z,33.47
2023-02-06T15:50:18.926Z,32.45
2023-02-06T15:52:47.430Z,33.78
2023-02-06T15:55:35.682Z,38.35
2023-02-06T15:58:05.190Z,35.53
2023-02-06T16:00:35.444Z,31.30
2023-02-06T16:03:07.676Z,22.88
2023-02-06T16:05:40.519Z,19.77
2023-02-06T16:08:20.200Z,22.77
2023-02-06T16:10:57.961Z,19.13
2023-02-06T16:13:27.586Z,14.48
2023-02-06T16:16:09.469Z,16.08
2023-02-06T16:18:38.420Z,17.23
2023-02-06T16:21:18.430Z,13.38
2023-02-06T16:23:49.051Z,15.30
2023-02-06T16:26:30.268Z,13.65
2023-02-06T16:29:16.379Z,13.75
2023-02-06T16:31:44.734Z,18.15
2023-02-06T16:34:32.305Z,13.75
2023-02-06T16:36:58.658Z,13.95
2023-02-06T16:39:25.045Z,14.38
2023-02-06T16:41:52.887Z,13.95
2023-02-06T16:44:20.171Z,14.77
2023-02-06T16:46:46.760Z,13.25
2023-02-06T16:49:16.596Z,15.93
2023-02-06T16:51:44.227Z,17.38
2023-02-06T16:54:23.275Z,19.40
2023-02-06T16:56:49.894Z,27.15
2023-02-06T16:59:16.281Z,15.93
2023-02-06T17:01:42.685Z,17.80
2023-02-06T17:04:09.036Z,16.23
2023-02-06T17:06:36.004Z,17.95
2023-02-06T17:09:08.836Z,19.95
2023-02-06T17:11:36.910Z,16.45
2023-02-06T17:14:03.452Z,16.85
2023-02-06T17:16:31.213Z,16.17
2023-02-06T17:18:57.890Z,16.30
2023-02-06T17:21:24.812Z,19.35
2023-02-06T17:23:51.708Z,18.00
2023-02-06T17:26:21.200Z,18.25
2023-02-06T17:28:48.457Z,19.85
2023-02-06T17:31:15.224Z,18.83
2023-02-06T17:33:41.712Z,19.55
2023-02-06T17:36:15.581Z,21.08
2023-02-06T17:38:41.925Z,20.85
2023-02-06T17:41:08.303Z,20.00
2023-02-06T17:43:36.241Z,18.08
2023-02-06T17:46:04.892Z,18.98
2023-02-06T17:48:32.566Z,18.40
2023-02-06T17:50:59.030Z,17.95
2023-02-06T17:53:25.371Z,20.25
2023-02-06T17:55:51.736Z,19.98
2023-02-06T17:58:18.769Z,20.45
2023-02-06T18:00:49.170Z,19.02
2023-02-06T18:03:18.140Z,134.45
2023-02-06T18:05:45.012Z,184.27
2023-02-06T18:08:11.920Z,145.70
2023-02-06T18:10:39.420Z,59.65
2023-02-06T18:13:05.870Z,24.77
2023-02-06T18:15:32.346Z,21.92
2023-02-06T18:17:59.583Z,20.08
2023-02-06T18:20:25.966Z,20.65
2023-02-06T18:22:52.428Z,19.83
2023-02-06T18:25:18.891Z,19.42
2023-02-06T18:27:45.994Z,20.20
2023-02-06T18:30:14.543Z,20.02
2023-02-06T18:32:41.095Z,19.85
2023-02-06T18:35:09.038Z,17.73
2023-02-06T18:37:35.715Z,20.95
2023-02-06T18:40:02.797Z,22.95
2023-02-06T18:42:47.548Z,21.40
2023-02-06T18:45:13.935Z,25.50
2023-02-06T18:47:42.306Z,26.95
2023-02-06T18:50:12.029Z,24.85
2023-02-06T18:52:39.293Z,27.25
2023-02-06T18:55:08.105Z,26.58
2023-02-06T18:57:35.614Z,27.48
2023-02-06T19:00:04.026Z,28.67
2023-02-06T19:02:30.474Z,26.77
2023-02-06T19:04:58.820Z,34.40
2023-02-06T19:07:25.545Z,77.22
2023-02-06T19:09:59.261Z,56.10
2023-02-06T19:12:30.370Z,26.98
2023-02-06T19:14:57.988Z,31.60
2023-02-06T19:17:26.139Z,36.65
2023-02-06T19:19:52.737Z,41.22
2023-02-06T19:22:19.227Z,35.90
2023-02-06T19:24:45.592Z,35.83
2023-02-06T19:27:13.057Z,34.55
2023-02-06T19:29:39.569Z,31.65
2023-02-06T19:32:07.923Z,40.05
2023-02-06T19:34:36.397Z,38.70
2023-02-06T19:37:07.668Z,29.52
2023-02-06T19:39:35.704Z,31.85
2023-02-06T19:42:06.795Z,33.15
2023-02-06T19:44:34.061Z,36.25
2023-02-06T19:47:01.643Z,40.63
2023-02-06T19:49:28.176Z,43.20
2023-02-06T19:51:54.828Z,40.33
2023-02-06T19:54:21.171Z,38.92
2023-02-06T19:56:47.784Z,41.55
2023-02-06T19:59:26.053Z,42.13
2023-02-06T20:02:02.421Z,39.88
2023-02-06T20:04:34.647Z,45.95
2023-02-06T20:07:01.552Z,44.65
2023-02-06T20:09:28.458Z,44.70
2023-02-06T20:11:55.034Z,41.30
2023-02-06T20:14:22.123Z,41.65
2023-02-06T20:16:49.208Z,41.28
2023-02-06T20:19:18.947Z,45.97
2023-02-06T20:21:48.123Z,47.22
2023-02-06T20:24:23.498Z,59.88
2023-02-06T20:26:55.657Z,46.33
2023-02-06T20:29:31.638Z,43.30
2023-02-06T20:31:58.746Z,46.45
2023-02-06T20:34:26.970Z,43.75
2023-02-06T20:36:56.832Z,46.30
2023-02-06T20:39:24.209Z,47.15
2023-02-06T20:41:50.747Z,47.03
2023-02-06T20:44:18.291Z,47.60
2023-02-06T20:46:45.110Z,53.53
2023-02-06T20:49:20.059Z,42.60
2023-02-06T20:51:48.923Z,40.35
2023-02-06T20:54:15.949Z,43.95
2023-02-06T20:56:42.466Z,48.15
2023-02-06T20:59:12.716Z,48.35
2023-02-06T21:01:39.940Z,49.53
2023-02-06T21:04:09.487Z,49.10
2023-02-06T21:06:37.306Z,48.10
2023-02-06T21:09:05.850Z,45.70
2023-02-06T21:11:35.521Z,45.20
2023-02-06T21:14:04.813Z,44.92
2023-02-06T21:16:32.104Z,42.55
2023-02-06T21:18:59.952Z,50.28
2023-02-06T21:21:26.733Z,47.95
2023-02-06T21:23:55.843Z,48.00
2023-02-06T21:26:23.684Z,46.63
2023-02-06T21:28:50.484Z,43.53
2023-02-06T21:31:20.991Z,45.88
2023-02-06T21:33:49.114Z,44.83
2023-02-06T21:36:15.790Z,49.40
2023-02-06T21:38:42.750Z,49.08
2023-02-06T21:41:13.249Z,48.72
2023-02-06T21:43:39.659Z,45.40
2023-02-06T21:46:06.859Z,47.25
2023-02-06T21:48:34.347Z,41.60
2023-02-06T21:51:12.706Z,45.38
2023-02-06T21:53:39.457Z,45.70
2023-02-06T21:56:11.815Z,42.67
2023-02-06T21:58:38.154Z,40.55
2023-02-06T22:01:08.764Z,44.25
2023-02-06T22:03:35.494Z,44.22
2023-02-06T22:06:08.417Z,42.30
2023-02-06T22:08:36.478Z,41.53
2023-02-06T22:11:10.831Z,43.40
2023-02-06T22:13:37.173Z,38.83
2023-02-06T22:16:03.735Z,38.10
2023-02-06T22:18:30.163Z,36.92
2023-02-06T22:21:04.204Z,39.97
2023-02-06T22:23:30.581Z,38.20
2023-02-06T22:25:56.953Z,37.80
2023-02-06T22:28:23.311Z,39.30
2023-02-06T22:30:49.856Z,38.65
2023-02-06T22:33:16.249Z,37.83
2023-02-06T22:35:42.634Z,39.50
2023-02-06T22:38:09.079Z,36.85
2023-02-06T22:40:35.430Z,36.53
2023-02-06T22:43:01.770Z,36.92
2023-02-06T22:45:28.235Z,37.20
2023-02-06T22:47:54.608Z,40.30
2023-02-06T22:50:21.912Z,40.45
2023-02-06T22:53:06.825Z,38.05
2023-02-06T22:55:57.271Z,36.83
2023-02-06T22:58:23.643Z,37.33
2023-02-06T23:00:50.095Z,42.50
2023-02-06T23:03:16.561Z,39.92
2023-02-06T23:05:42.947Z,35.03
2023-02-06T23:08:09.275Z,39.95
2023-02-06T23:10:35.716Z,37.42
2023-02-06T23:13:02.256Z,37.65
2023-02-06T23:15:28.622Z,39.33
2023-02-06T23:17:58.282Z,39.38
2023-02-06T23:20:27.304Z,38.03
2023-02-06T23:22:53.684Z,37.47
2023-02-06T23:25:20.031Z,35.15
2023-02-06T23:27:46.448Z,32.50
2023-02-06T23:30:13.131Z,30.92
2023-02-06T23:32:39.507Z,36.10
2023-02-06T23:35:06.084Z,33.53
2023-02-06T23:37:32.477Z,30.90
2023-02-06T23:39:58.960Z,34.85
2023-02-06T23:42:25.308Z,35.47
2023-02-06T23:44:51.670Z,31.58
2023-02-06T23:47:18.024Z,34.42
2023-02-06T23:49:44.377Z,35.00
2023-02-06T23:52:10.773Z,36.42
2023-02-06T23:54:37.206Z,33.22
2023-02-06T23:57:03.683Z,33.55
2023-02-06T23:59:30.082Z,46.90
